Wilson Lahn — 8PUO — position and weather

sailwx.info

Track history (hours):
 
Tides and Currents Weather Stations Pressure Air Temp Water Temp Dewpoint Dewpoint Depression Visibility Wind Speed Wind Dir Waves Ship Positions

Wilson Lahn

Last reported at 2017-May-27 13:30 UTC. Time now 2017-May-27 13:39 UTC.
Position N 63°24' E 008°34'.

Length 83 m; draft 4.4 m.

Type: Cargo ship. MMSI: 314259000.

Date/timePositionNaut miles runAvg speedWind from/ knotsBaromVisibWave heightAir tempDewpointWater temp
2017-May-27 13:30N 63°24' E 008°34'510.5
2017-May-27 13:00N 63°22' E 008°24'510.8
2017-May-27 12:30N 63°18' E 008°15'510.7
2017-May-27 12:00N 63°15' E 008°05'510.6
2017-May-27 11:30N 63°13' E 007°55'510.2
2017-May-27 11:00N 63°13' E 007°44'4 9.0
2017-May-27 10:30N 63°15' E 007°35'5 9.0
2017-May-27 10:00N 63°14' E 007°25'5 9.0
2017-May-27 09:30N 63°12' E 007°16'5 9.2
2017-May-27 09:00N 63°09' E 007°07'5 9.0
2017-May-27 08:30N 63°07' E 006°59'510.2
2017-May-27 08:00N 63°04' E 006°50'510.5
2017-May-27 07:30N 63°01' E 006°40'510.7
2017-May-27 07:00N 62°58' E 006°31'510.8
2017-May-27 06:30N 62°55' E 006°21'510.4
2017-May-27 06:00N 62°52' E 006°12'5 9.7
2017-May-27 05:30N 62°48' E 006°04'5 9.8
2017-May-27 05:00N 62°45' E 005°57'5 9.6
2017-May-27 04:30N 62°41' E 005°50'5 9.5
2017-May-27 04:00N 62°37' E 005°43'5 9.5
2017-May-27 03:30N 62°34' E 005°36'5 9.6
2017-May-27 03:00N 62°30' E 005°29'5 9.7
2017-May-27 02:30N 62°27' E 005°22'5 9.9
2017-May-27 02:00N 62°23' E 005°15'5 9.9
2017-May-27 01:30N 62°19' E 005°08'510.0
2017-May-27 01:00N 62°16' E 005°01'5 9.8
2017-May-27 00:30N 62°12' E 004°55'510.0
2017-May-27 00:00N 62°07' E 004°50'510.3
2017-May-26 23:30N 62°02' E 004°46'510.4
2017-May-26 23:00N 61°58' E 004°42'510.4
2017-May-26 22:30N 61°53' E 004°38'510.4
2017-May-26 22:00N 61°48' E 004°34'510.3
2017-May-26 21:30N 61°43' E 004°30'510.5
2017-May-26 21:00N 61°38' E 004°28'610.9
2017-May-26 20:30N 61°33' E 004°26'510.7
2017-May-26 20:00N 61°27' E 004°25'510.5
2017-May-26 19:30N 61°22' E 004°24'510.6
2017-May-26 19:00N 61°17' E 004°24'510.7
2017-May-26 18:30N 61°11' E 004°25'611.4
2017-May-26 18:00N 61°06' E 004°24'611.4
2017-May-26 17:30N 61°00' E 004°24'611.4
2017-May-26 17:00N 60°54' E 004°26'611.5
2017-May-26 16:29N 60°49' E 004°27'611.3
2017-May-26 16:00N 60°43' E 004°28'510.5
2017-May-26 15:30N 60°38' E 004°30'510.3
2017-May-26 15:00N 60°33' E 004°31'1110.5
2017-May-26 13:59N 60°22' E 004°33'510.2
2017-May-26 13:30N 60°17' E 004°34'510.2
2017-May-26 13:00N 60°12' E 004°36'510.6
2017-May-26 12:30N 60°07' E 004°37'610.7
2017-May-26 11:59N 60°01' E 004°38'510.9
2017-May-26 11:30N 59°56' E 004°39'510.8
2017-May-26 11:00N 59°51' E 004°40'511.0
2017-May-26 10:30N 59°45' E 004°42'510.7
2017-May-26 10:00N 59°40' E 004°43'510.5
2017-May-26 09:30N 59°35' E 004°44'510.6
2017-May-26 08:59N 59°29' E 004°45'510.5
2017-May-26 08:30N 59°24' E 004°46'510.2
2017-May-26 08:00N 59°19' E 004°47'510.7
2017-May-26 07:30N 59°14' E 004°48'711.2
2017-May-26 06:51N 59°07' E 004°49'410.8
2017-May-26 06:28N 59°02' E 004°50'610.6
2017-May-26 05:53N 58°56' E 004°51'410.6
2017-May-26 05:30N 58°52' E 004°51'510.4
2017-May-26 05:00N 58°47' E 004°52'510.0
2017-May-26 04:30N 58°42' E 004°53'5 9.7
2017-May-26 04:00N 58°37' E 004°54'510.0
2017-May-26 03:30N 58°32' E 004°54'610.3
2017-May-26 02:56N 58°26' E 004°55'410.0
2017-May-26 02:30N 58°22' E 004°55'510.0
2017-May-26 02:00N 58°17' E 004°56'5 9.8
2017-May-26 01:30N 58°12' E 004°57'5 9.7
2017-May-26 00:57N 58°07' E 004°57'5 9.9
2017-May-26 00:27N 58°02' E 004°58'4 9.6
2017-May-26 00:00N 57°58' E 004°59'5 9.7
2017-May-25 23:28N 57°52' E 004°59'26710.0
2017-May-24 20:48N 53°25' E 004°42'5 9.5
2017-May-24 20:14N 53°21' E 004°38'5 9.9
2017-May-24 19:44N 53°16' E 004°34'3 9.9
2017-May-24 19:24N 53°13' E 004°32'1410.2
2017-May-24 18:01N 53°01' E 004°21'010.9
2017-May-24 17:59N 53°00' E 004°21'510.8
2017-May-24 17:30N 52°56' E 004°17'610.7
2017-May-24 16:56N 52°50' E 004°12'511.4
2017-May-24 16:29N 52°46' E 004°07'611.8
2017-May-24 16:00N 52°42' E 004°01'611.3
2017-May-24 15:30N 52°38' E 003°54'611.3
2017-May-24 14:58N 52°33' E 003°48'2911.8
2017-May-24 12:30N 52°12' E 003°15'1311.9
2017-May-24 11:24N 52°02' E 003°01'711.5
2017-May-24 10:48N 51°57' E 002°53'411.0
2017-May-24 10:26N 51°54' E 002°49'1010.6
2017-May-24 09:27N 51°46' E 002°39'5 9.9
2017-May-24 08:59N 51°43' E 002°34'5 9.6
2017-May-24 08:30N 51°39' E 002°29'5 9.2
2017-May-24 07:59N 51°35' E 002°24'4 8.9
2017-May-24 07:30N 51°32' E 002°20'4 8.4
2017-May-24 07:00N 51°29' E 002°16'4 8.5
2017-May-24 06:30N 51°25' E 002°12'5 9.1
2017-May-24 06:00N 51°21' E 002°10'4 8.7
2017-May-24 05:30N 51°17' E 002°06'4 8.7
2017-May-24 05:00N 51°13' E 002°02'5 9.5
2017-May-24 04:30N 51°10' E 001°57'5 9.6
2017-May-24 04:00N 51°08' E 001°50'5 9.0
2017-May-24 03:30N 51°05' E 001°45'5 9.3
2017-May-24 03:00N 51°01' E 001°40'5 9.7
2017-May-24 02:30N 50°58' E 001°35'510.2
2017-May-24 02:00N 50°54' E 001°30'6810.7
2017-May-23 19:37N 50°04' E 000°16'112.3
2017-May-23 19:30N 50°03' E 000°14'612.5
2017-May-23 19:00N 49°59' E 000°07'612.5
2017-May-23 18:30N 49°55' W 000°00'510.9
2017-May-23 18:00N 49°51' W 000°06'510.2
2017-May-23 17:30N 49°46' W 000°07'5 9.4
2017-May-23 17:00N 49°41' W 000°07'5 9.4
2017-May-23 16:30N 49°36' W 000°06'5 9.3
2017-May-23 16:00N 49°32' W 000°06'4 8.3
2017-May-23 15:30N 49°28' W 000°02'510.1
2017-May-23 15:00N 49°26' E 000°05'612.8
2017-May-23 14:30N 49°26' E 000°15'1212.0
2017-May-23 13:30N 49°27' E 000°33'5 9.4
2017-May-23 13:00N 49°29' E 000°40'5 7.6
2017-May-23 12:18N 49°29' E 000°48'2 0.2
2017-May-22 21:58N 49°26' E 000°48'6 5.7
2017-May-22 20:56N 49°29' E 000°40'410.1
2017-May-22 20:30N 49°26' E 000°34'5 9.7
2017-May-22 20:00N 49°28' E 000°28'612.5
2017-May-22 19:30N 49°26' E 000°19'612.5
2017-May-22 19:00N 49°26' E 000°09'611.8
2017-May-22 18:30N 49°28' E 000°00'5 9.8
2017-May-22 18:00N 49°28' W 000°07'0 0.2
2017-May-22 17:29N 49°28' W 000°07'0 0.0
2017-May-22 16:59N 49°28' W 000°07'0 0.0
2017-May-22 16:29N 49°28' W 000°07'0 0.0
2017-May-22 15:59N 49°28' W 000°07'0 0.0
2017-May-22 15:29N 49°28' W 000°07'0 0.1
2017-May-22 14:59N 49°28' W 000°07'0 0.0
2017-May-22 13:59N 49°28' W 000°07'0 0.0
2017-May-22 13:29N 49°28' W 000°07'0 0.0
2017-May-22 12:59N 49°28' W 000°07'0 0.0
2017-May-22 12:29N 49°28' W 000°07'0 0.0
2017-May-22 11:59N 49°28' W 000°07'0 0.0
2017-May-22 11:29N 49°28' W 000°07'0 0.0
2017-May-22 10:59N 49°28' W 000°07'0 0.0
2017-May-22 10:29N 49°28' W 000°07'0 0.0
2017-May-22 09:59N 49°28' W 000°07'0 0.0
2017-May-22 09:29N 49°28' W 000°07'0 0.0
2017-May-22 08:59N 49°28' W 000°07'0 0.0
2017-May-22 08:29N 49°28' W 000°07'0 0.0
2017-May-22 07:59N 49°28' W 000°07'0 0.0
2017-May-22 07:29N 49°28' W 000°07'0 0.0
2017-May-22 06:59N 49°28' W 000°07'0 0.0
2017-May-22 06:29N 49°28' W 000°07'0 0.0
2017-May-22 05:59N 49°28' W 000°07'0 0.0
2017-May-22 05:29N 49°28' W 000°07'0 0.0
2017-May-22 04:56N 49°28' W 000°07'0 0.0
2017-May-22 04:29N 49°28' W 000°07'0 0.0
2017-May-22 03:59N 49°28' W 000°07'0 0.1
2017-May-22 03:29N 49°28' W 000°07'0 0.0
2017-May-22 02:59N 49°28' W 000°07'0 0.1
2017-May-22 02:29N 49°28' W 000°07'0 0.0
2017-May-22 01:59N 49°28' W 000°07'0 0.0
2017-May-22 01:29N 49°28' W 000°07'0 0.0
2017-May-22 00:59N 49°28' W 000°07'0 0.0
2017-May-22 00:29N 49°28' W 000°07'0 0.0
2017-May-21 23:59N 49°28' W 000°07'0 0.0
2017-May-21 23:29N 49°28' W 000°07'0 0.0
2017-May-21 22:59N 49°28' W 000°07'0 0.0
2017-May-21 22:29N 49°28' W 000°07'0 0.0
2017-May-21 21:59N 49°28' W 000°07'0 0.0
2017-May-21 21:29N 49°28' W 000°07'0 0.0
2017-May-21 20:59N 49°28' W 000°07'0 0.0
2017-May-21 20:29N 49°28' W 000°07'0 0.0
2017-May-21 19:59N 49°28' W 000°07'0 0.0
2017-May-21 19:26N 49°28' W 000°07'0 0.0
2017-May-21 18:59N 49°28' W 000°07'0 0.0
2017-May-21 18:29N 49°28' W 000°07'0 0.0
2017-May-21 17:59N 49°28' W 000°07'0 0.0
2017-May-21 17:29N 49°28' W 000°07'0 0.0
2017-May-21 16:59N 49°28' W 000°07'0 0.1
2017-May-21 16:29N 49°28' W 000°07'0 0.1
2017-May-21 15:59N 49°28' W 000°07'0 0.1
2017-May-21 15:29N 49°28' W 000°07'0 0.0
2017-May-21 14:59N 49°28' W 000°07'0 0.0
2017-May-21 13:59N 49°28' W 000°07'0 0.0
2017-May-21 13:29N 49°28' W 000°07'0 0.0
2017-May-21 12:59N 49°28' W 000°07'0 0.0
2017-May-21 12:29N 49°28' W 000°07'0 0.0
2017-May-21 11:59N 49°28' W 000°07'0 0.0
2017-May-21 11:29N 49°28' W 000°07'0 0.0
2017-May-21 10:59N 49°28' W 000°07'0 0.0
2017-May-21 10:29N 49°28' W 000°07'0 0.0
2017-May-21 09:59N 49°28' W 000°07'0 0.0
2017-May-21 09:29N 49°28' W 000°07'0 0.0
2017-May-21 08:59N 49°28' W 000°07'0 0.0
2017-May-21 08:29N 49°28' W 000°07'0 0.0
2017-May-21 07:59N 49°28' W 000°07'0 0.1
2017-May-21 07:29N 49°28' W 000°07'0 0.0
2017-May-21 06:59N 49°28' W 000°07'0 0.0
2017-May-21 06:26N 49°28' W 000°07'0 0.0
2017-May-21 05:59N 49°28' W 000°07'0 0.0
2017-May-21 05:29N 49°28' W 000°07'0 0.0
2017-May-21 04:59N 49°28' W 000°07'0 0.0
2017-May-21 04:29N 49°28' W 000°07'0 0.0
2017-May-21 03:59N 49°28' W 000°07'0 0.0
2017-May-21 03:29N 49°28' W 000°07'0 0.0
2017-May-21 02:59N 49°28' W 000°07'0 0.0
2017-May-21 02:29N 49°28' W 000°07'0 0.0
2017-May-21 01:59N 49°28' W 000°07'0 0.0
2017-May-21 01:29N 49°28' W 000°07'0 0.1
2017-May-21 00:59N 49°28' W 000°07'0 0.0
2017-May-21 00:29N 49°28' W 000°07'0 0.0
2017-May-20 23:59N 49°28' W 000°07'0 0.0
2017-May-20 23:29N 49°28' W 000°07'0 0.0
2017-May-20 22:59N 49°28' W 000°07'0 0.0
2017-May-20 22:29N 49°28' W 000°07'0 0.0
2017-May-20 21:59N 49°28' W 000°07'0 0.0
2017-May-20 21:29N 49°28' W 000°07'0 0.0
2017-May-20 20:59N 49°28' W 000°07'0 0.1
2017-May-20 20:29N 49°28' W 000°07'0 0.1
2017-May-20 19:59N 49°28' W 000°07'0 0.0
2017-May-20 19:29N 49°28' W 000°07'0 0.0
2017-May-20 18:59N 49°28' W 000°07'0 0.0
2017-May-20 18:29N 49°28' W 000°07'0 0.0
2017-May-20 17:56N 49°28' W 000°07'0 0.0
2017-May-20 17:29N 49°28' W 000°07'0 0.0
2017-May-20 16:59N 49°28' W 000°07'0 0.0
2017-May-20 16:29N 49°28' W 000°07'0 0.0
2017-May-20 15:59N 49°28' W 000°07'0 0.0
2017-May-20 15:29N 49°28' W 000°07'0 0.0
2017-May-20 14:59N 49°28' W 000°07'0 0.0
2017-May-20 14:29N 49°28' W 000°07'0 0.0
2017-May-20 13:29N 49°28' W 000°07'0 0.0
2017-May-20 12:56N 49°28' W 000°07'0 0.0
2017-May-20 12:29N 49°28' W 000°07'0 0.0
2017-May-20 11:59N 49°28' W 000°07'0 0.1
2017-May-20 11:23N 49°28' W 000°07'0 0.1
2017-May-20 10:59N 49°28' W 000°07'0 0.0
2017-May-20 10:29N 49°28' W 000°07'0 0.0
2017-May-20 09:59N 49°28' W 000°07'0 0.0
2017-May-20 09:29N 49°28' W 000°07'0 0.1
2017-May-20 08:59N 49°28' W 000°07'0 0.0
2017-May-20 08:23N 49°28' W 000°07'0 0.0
2017-May-20 07:59N 49°28' W 000°07'0 0.0
2017-May-20 07:29N 49°28' W 000°07'0 0.0
2017-May-20 06:59N 49°28' W 000°07'3 6.3
2017-May-20 06:30N 49°31' W 000°10'510.5
2017-May-20 06:00N 49°36' W 000°10'5 9.7
2017-May-20 05:30N 49°41' W 000°09'5 9.4
2017-May-20 05:00N 49°45' W 000°09'5 9.3
2017-May-20 04:30N 49°50' W 000°08'5 9.3
2017-May-20 04:00N 49°55' W 000°07'5 9.2
2017-May-20 03:30N 49°59' W 000°06'5 9.0
2017-May-20 03:00N 50°04' W 000°05'4 9.0
2017-May-20 02:30N 50°08' W 000°05'18 9.2
2017-May-20 00:32N 50°26' W 000°01'0 9.4
2017-May-20 00:30N 50°27' W 000°01'5 8.6
2017-May-19 23:54N 50°29' E 000°06'4 9.5
2017-May-19 23:30N 50°30' E 000°12'5 9.9
2017-May-19 23:00N 50°31' E 000°19'42 9.8
2017-May-19 18:45N 50°52' E 001°16'3 8.4
2017-May-19 18:25N 50°54' E 001°19'3 8.3
2017-May-19 18:00N 50°57' E 001°21'4 8.5
2017-May-19 17:30N 51°01' E 001°25'4 9.0
2017-May-19 17:01N 51°05' E 001°28'5 9.3
2017-May-19 16:30N 51°09' E 001°32'510.2
2017-May-19 16:00N 51°13' E 001°36'510.4
2017-May-19 15:30N 51°18' E 001°39'611.6
2017-May-19 15:00N 51°23' E 001°42'1211.6
2017-May-19 14:01N 51°35' E 001°44'612.2
2017-May-19 13:31N 51°41' E 001°44'612.4
2017-May-19 13:01N 51°47' E 001°44'612.1
2017-May-19 12:30N 51°53' E 001°45'611.8
2017-May-19 12:00N 51°59' E 001°46'611.4
2017-May-19 11:31N 52°05' E 001°47'611.2
2017-May-19 11:01N 52°10' E 001°48'510.8
2017-May-19 10:31N 52°16' E 001°49'1910.0
2017-May-19 08:36N 52°34' E 001°52'1 9.2
2017-May-19 08:30N 52°35' E 001°52'4 8.8
2017-May-19 08:00N 52°40' E 001°51'5 9.3
2017-May-19 07:31N 52°44' E 001°48'5 9.6
2017-May-19 07:01N 52°48' E 001°44'5 9.2
2017-May-19 06:31N 52°51' E 001°39'5 9.6
2017-May-19 06:01N 52°54' E 001°32'5 9.9
2017-May-19 05:30N 52°57' E 001°25'510.1
2017-May-19 05:01N 52°59' E 001°18'7711.0
2017-May-18 22:03N 54°03' E 000°07'112.3
2017-May-18 21:56N 54°04' E 000°06'512.6
2017-May-18 21:30N 54°09' E 000°01'612.3
2017-May-18 21:00N 54°14' W 000°05'611.9
2017-May-18 20:30N 54°18' W 000°11'611.9
2017-May-18 20:00N 54°23' W 000°17'611.7
2017-May-18 19:30N 54°28' W 000°23'5 0.2
2017-May-17 15:22N 54°32' W 000°28'411.5
2017-May-17 15:00N 54°28' W 000°24'1211.6
2017-May-17 14:00N 54°19' W 000°12'611.6
2017-May-17 13:30N 54°14' W 000°06'  
Track history (hours):
 
Tides and Currents Weather Stations Pressure Air Temp Water Temp Dewpoint Dewpoint Depression Visibility Wind Speed Wind Dir Waves Ship Positions

Wilson Lahn

Last reported at 2017-May-27 13:30 UTC. Time now 2017-May-27 13:39 UTC.
Position N 63°24' E 008°34'.

Length 83 m; draft 4.4 m.

Type: Cargo ship. MMSI: 314259000.

Date/timePositionNaut miles runAvg speedWind from/ knotsBaromVisibWave heightAir tempDewpointWater temp
2017-May-27 13:30N 63°24' E 008°34'510.5
2017-May-27 13:00N 63°22' E 008°24'510.8
2017-May-27 12:30N 63°18' E 008°15'510.7
2017-May-27 12:00N 63°15' E 008°05'510.6
2017-May-27 11:30N 63°13' E 007°55'510.2
2017-May-27 11:00N 63°13' E 007°44'4 9.0
2017-May-27 10:30N 63°15' E 007°35'5 9.0
2017-May-27 10:00N 63°14' E 007°25'5 9.0
2017-May-27 09:30N 63°12' E 007°16'5 9.2
2017-May-27 09:00N 63°09' E 007°07'5 9.0
2017-May-27 08:30N 63°07' E 006°59'510.2
2017-May-27 08:00N 63°04' E 006°50'510.5
2017-May-27 07:30N 63°01' E 006°40'510.7
2017-May-27 07:00N 62°58' E 006°31'510.8
2017-May-27 06:30N 62°55' E 006°21'510.4
2017-May-27 06:00N 62°52' E 006°12'5 9.7
2017-May-27 05:30N 62°48' E 006°04'5 9.8
2017-May-27 05:00N 62°45' E 005°57'5 9.6
2017-May-27 04:30N 62°41' E 005°50'5 9.5
2017-May-27 04:00N 62°37' E 005°43'5 9.5
2017-May-27 03:30N 62°34' E 005°36'5 9.6
2017-May-27 03:00N 62°30' E 005°29'5 9.7
2017-May-27 02:30N 62°27' E 005°22'5 9.9
2017-May-27 02:00N 62°23' E 005°15'5 9.9
2017-May-27 01:30N 62°19' E 005°08'510.0
2017-May-27 01:00N 62°16' E 005°01'5 9.8
2017-May-27 00:30N 62°12' E 004°55'510.0
2017-May-27 00:00N 62°07' E 004°50'510.3
2017-May-26 23:30N 62°02' E 004°46'510.4
2017-May-26 23:00N 61°58' E 004°42'510.4
2017-May-26 22:30N 61°53' E 004°38'510.4
2017-May-26 22:00N 61°48' E 004°34'510.3
2017-May-26 21:30N 61°43' E 004°30'510.5
2017-May-26 21:00N 61°38' E 004°28'610.9
2017-May-26 20:30N 61°33' E 004°26'510.7
2017-May-26 20:00N 61°27' E 004°25'510.5
2017-May-26 19:30N 61°22' E 004°24'510.6
2017-May-26 19:00N 61°17' E 004°24'510.7
2017-May-26 18:30N 61°11' E 004°25'611.4
2017-May-26 18:00N 61°06' E 004°24'611.4
2017-May-26 17:30N 61°00' E 004°24'611.4
2017-May-26 17:00N 60°54' E 004°26'611.5
2017-May-26 16:29N 60°49' E 004°27'611.3
2017-May-26 16:00N 60°43' E 004°28'510.5
2017-May-26 15:30N 60°38' E 004°30'510.3
2017-May-26 15:00N 60°33' E 004°31'1110.5
2017-May-26 13:59N 60°22' E 004°33'510.2
2017-May-26 13:30N 60°17' E 004°34'510.2
2017-May-26 13:00N 60°12' E 004°36'510.6
2017-May-26 12:30N 60°07' E 004°37'610.7
2017-May-26 11:59N 60°01' E 004°38'510.9
2017-May-26 11:30N 59°56' E 004°39'510.8
2017-May-26 11:00N 59°51' E 004°40'511.0
2017-May-26 10:30N 59°45' E 004°42'510.7
2017-May-26 10:00N 59°40' E 004°43'510.5
2017-May-26 09:30N 59°35' E 004°44'510.6
2017-May-26 08:59N 59°29' E 004°45'510.5
2017-May-26 08:30N 59°24' E 004°46'510.2
2017-May-26 08:00N 59°19' E 004°47'510.7
2017-May-26 07:30N 59°14' E 004°48'711.2
2017-May-26 06:51N 59°07' E 004°49'410.8
2017-May-26 06:28N 59°02' E 004°50'610.6
2017-May-26 05:53N 58°56' E 004°51'410.6
2017-May-26 05:30N 58°52' E 004°51'510.4
2017-May-26 05:00N 58°47' E 004°52'510.0
2017-May-26 04:30N 58°42' E 004°53'5 9.7
2017-May-26 04:00N 58°37' E 004°54'510.0
2017-May-26 03:30N 58°32' E 004°54'610.3
2017-May-26 02:56N 58°26' E 004°55'410.0
2017-May-26 02:30N 58°22' E 004°55'510.0
2017-May-26 02:00N 58°17' E 004°56'5 9.8
2017-May-26 01:30N 58°12' E 004°57'5 9.7
2017-May-26 00:57N 58°07' E 004°57'5 9.9
2017-May-26 00:27N 58°02' E 004°58'4 9.6
2017-May-26 00:00N 57°58' E 004°59'5 9.7
2017-May-25 23:28N 57°52' E 004°59'26710.0
2017-May-24 20:48N 53°25' E 004°42'5 9.5
2017-May-24 20:14N 53°21' E 004°38'5 9.9
2017-May-24 19:44N 53°16' E 004°34'3 9.9
2017-May-24 19:24N 53°13' E 004°32'1410.2
2017-May-24 18:01N 53°01' E 004°21'010.9
2017-May-24 17:59N 53°00' E 004°21'510.8
2017-May-24 17:30N 52°56' E 004°17'610.7
2017-May-24 16:56N 52°50' E 004°12'511.4
2017-May-24 16:29N 52°46' E 004°07'611.8
2017-May-24 16:00N 52°42' E 004°01'611.3
2017-May-24 15:30N 52°38' E 003°54'611.3
2017-May-24 14:58N 52°33' E 003°48'2911.8
2017-May-24 12:30N 52°12' E 003°15'1311.9
2017-May-24 11:24N 52°02' E 003°01'711.5
2017-May-24 10:48N 51°57' E 002°53'411.0
2017-May-24 10:26N 51°54' E 002°49'1010.6
2017-May-24 09:27N 51°46' E 002°39'5 9.9
2017-May-24 08:59N 51°43' E 002°34'5 9.6
2017-May-24 08:30N 51°39' E 002°29'5 9.2
2017-May-24 07:59N 51°35' E 002°24'4 8.9
2017-May-24 07:30N 51°32' E 002°20'4 8.4
2017-May-24 07:00N 51°29' E 002°16'4 8.5
2017-May-24 06:30N 51°25' E 002°12'5 9.1
2017-May-24 06:00N 51°21' E 002°10'4 8.7
2017-May-24 05:30N 51°17' E 002°06'4 8.7
2017-May-24 05:00N 51°13' E 002°02'5 9.5
2017-May-24 04:30N 51°10' E 001°57'5 9.6
2017-May-24 04:00N 51°08' E 001°50'5 9.0
2017-May-24 03:30N 51°05' E 001°45'5 9.3
2017-May-24 03:00N 51°01' E 001°40'5 9.7
2017-May-24 02:30N 50°58' E 001°35'510.2
2017-May-24 02:00N 50°54' E 001°30'6810.7
2017-May-23 19:37N 50°04' E 000°16'112.3
2017-May-23 19:30N 50°03' E 000°14'612.5
2017-May-23 19:00N 49°59' E 000°07'612.5
2017-May-23 18:30N 49°55' W 000°00'510.9
2017-May-23 18:00N 49°51' W 000°06'510.2
2017-May-23 17:30N 49°46' W 000°07'5 9.4
2017-May-23 17:00N 49°41' W 000°07'5 9.4
2017-May-23 16:30N 49°36' W 000°06'5 9.3
2017-May-23 16:00N 49°32' W 000°06'4 8.3
2017-May-23 15:30N 49°28' W 000°02'510.1
2017-May-23 15:00N 49°26' E 000°05'612.8
2017-May-23 14:30N 49°26' E 000°15'1212.0
2017-May-23 13:30N 49°27' E 000°33'5 9.4
2017-May-23 13:00N 49°29' E 000°40'5 7.6
2017-May-23 12:18N 49°29' E 000°48'2 0.2
2017-May-22 21:58N 49°26' E 000°48'6 5.7
2017-May-22 20:56N 49°29' E 000°40'410.1
2017-May-22 20:30N 49°26' E 000°34'5 9.7
2017-May-22 20:00N 49°28' E 000°28'612.5
2017-May-22 19:30N 49°26' E 000°19'612.5
2017-May-22 19:00N 49°26' E 000°09'611.8
2017-May-22 18:30N 49°28' E 000°00'5 9.8
2017-May-22 18:00N 49°28' W 000°07'0 0.2
2017-May-22 17:29N 49°28' W 000°07'0 0.0
2017-May-22 16:59N 49°28' W 000°07'0 0.0
2017-May-22 16:29N 49°28' W 000°07'0 0.0
2017-May-22 15:59N 49°28' W 000°07'0 0.0
2017-May-22 15:29N 49°28' W 000°07'0 0.1
2017-May-22 14:59N 49°28' W 000°07'0 0.0
2017-May-22 13:59N 49°28' W 000°07'0 0.0
2017-May-22 13:29N 49°28' W 000°07'0 0.0
2017-May-22 12:59N 49°28' W 000°07'0 0.0
2017-May-22 12:29N 49°28' W 000°07'0 0.0
2017-May-22 11:59N 49°28' W 000°07'0 0.0
2017-May-22 11:29N 49°28' W 000°07'0 0.0
2017-May-22 10:59N 49°28' W 000°07'0 0.0
2017-May-22 10:29N 49°28' W 000°07'0 0.0
2017-May-22 09:59N 49°28' W 000°07'0 0.0
2017-May-22 09:29N 49°28' W 000°07'0 0.0
2017-May-22 08:59N 49°28' W 000°07'0 0.0
2017-May-22 08:29N 49°28' W 000°07'0 0.0
2017-May-22 07:59N 49°28' W 000°07'0 0.0
2017-May-22 07:29N 49°28' W 000°07'0 0.0
2017-May-22 06:59N 49°28' W 000°07'0 0.0
2017-May-22 06:29N 49°28' W 000°07'0 0.0
2017-May-22 05:59N 49°28' W 000°07'0 0.0
2017-May-22 05:29N 49°28' W 000°07'0 0.0
2017-May-22 04:56N 49°28' W 000°07'0 0.0
2017-May-22 04:29N 49°28' W 000°07'0 0.0
2017-May-22 03:59N 49°28' W 000°07'0 0.1
2017-May-22 03:29N 49°28' W 000°07'0 0.0
2017-May-22 02:59N 49°28' W 000°07'0 0.1
2017-May-22 02:29N 49°28' W 000°07'0 0.0
2017-May-22 01:59N 49°28' W 000°07'0 0.0
2017-May-22 01:29N 49°28' W 000°07'0 0.0
2017-May-22 00:59N 49°28' W 000°07'0 0.0
2017-May-22 00:29N 49°28' W 000°07'0 0.0
2017-May-21 23:59N 49°28' W 000°07'0 0.0
2017-May-21 23:29N 49°28' W 000°07'0 0.0
2017-May-21 22:59N 49°28' W 000°07'0 0.0
2017-May-21 22:29N 49°28' W 000°07'0 0.0
2017-May-21 21:59N 49°28' W 000°07'0 0.0
2017-May-21 21:29N 49°28' W 000°07'0 0.0
2017-May-21 20:59N 49°28' W 000°07'0 0.0
2017-May-21 20:29N 49°28' W 000°07'0 0.0
2017-May-21 19:59N 49°28' W 000°07'0 0.0
2017-May-21 19:26N 49°28' W 000°07'0 0.0
2017-May-21 18:59N 49°28' W 000°07'0 0.0
2017-May-21 18:29N 49°28' W 000°07'0 0.0
2017-May-21 17:59N 49°28' W 000°07'0 0.0
2017-May-21 17:29N 49°28' W 000°07'0 0.0
2017-May-21 16:59N 49°28' W 000°07'0 0.1
2017-May-21 16:29N 49°28' W 000°07'0 0.1
2017-May-21 15:59N 49°28' W 000°07'0 0.1
2017-May-21 15:29N 49°28' W 000°07'0 0.0
2017-May-21 14:59N 49°28' W 000°07'0 0.0
2017-May-21 13:59N 49°28' W 000°07'0 0.0
2017-May-21 13:29N 49°28' W 000°07'0 0.0
2017-May-21 12:59N 49°28' W 000°07'0 0.0
2017-May-21 12:29N 49°28' W 000°07'0 0.0
2017-May-21 11:59N 49°28' W 000°07'0 0.0
2017-May-21 11:29N 49°28' W 000°07'0 0.0
2017-May-21 10:59N 49°28' W 000°07'0 0.0
2017-May-21 10:29N 49°28' W 000°07'0 0.0
2017-May-21 09:59N 49°28' W 000°07'0 0.0
2017-May-21 09:29N 49°28' W 000°07'0 0.0
2017-May-21 08:59N 49°28' W 000°07'0 0.0
2017-May-21 08:29N 49°28' W 000°07'0 0.0
2017-May-21 07:59N 49°28' W 000°07'0 0.1
2017-May-21 07:29N 49°28' W 000°07'0 0.0
2017-May-21 06:59N 49°28' W 000°07'0 0.0
2017-May-21 06:26N 49°28' W 000°07'0 0.0
2017-May-21 05:59N 49°28' W 000°07'0 0.0
2017-May-21 05:29N 49°28' W 000°07'0 0.0
2017-May-21 04:59N 49°28' W 000°07'0 0.0
2017-May-21 04:29N 49°28' W 000°07'0 0.0
2017-May-21 03:59N 49°28' W 000°07'0 0.0
2017-May-21 03:29N 49°28' W 000°07'0 0.0
2017-May-21 02:59N 49°28' W 000°07'0 0.0
2017-May-21 02:29N 49°28' W 000°07'0 0.0
2017-May-21 01:59N 49°28' W 000°07'0 0.0
2017-May-21 01:29N 49°28' W 000°07'0 0.1
2017-May-21 00:59N 49°28' W 000°07'0 0.0
2017-May-21 00:29N 49°28' W 000°07'0 0.0
2017-May-20 23:59N 49°28' W 000°07'0 0.0
2017-May-20 23:29N 49°28' W 000°07'0 0.0
2017-May-20 22:59N 49°28' W 000°07'0 0.0
2017-May-20 22:29N 49°28' W 000°07'0 0.0
2017-May-20 21:59N 49°28' W 000°07'0 0.0
2017-May-20 21:29N 49°28' W 000°07'0 0.0
2017-May-20 20:59N 49°28' W 000°07'0 0.1
2017-May-20 20:29N 49°28' W 000°07'0 0.1
2017-May-20 19:59N 49°28' W 000°07'0 0.0
2017-May-20 19:29N 49°28' W 000°07'0 0.0
2017-May-20 18:59N 49°28' W 000°07'0 0.0
2017-May-20 18:29N 49°28' W 000°07'0 0.0
2017-May-20 17:56N 49°28' W 000°07'0 0.0
2017-May-20 17:29N 49°28' W 000°07'0 0.0
2017-May-20 16:59N 49°28' W 000°07'0 0.0
2017-May-20 16:29N 49°28' W 000°07'0 0.0
2017-May-20 15:59N 49°28' W 000°07'0 0.0
2017-May-20 15:29N 49°28' W 000°07'0 0.0
2017-May-20 14:59N 49°28' W 000°07'0 0.0
2017-May-20 14:29N 49°28' W 000°07'0 0.0
2017-May-20 13:29N 49°28' W 000°07'0 0.0
2017-May-20 12:56N 49°28' W 000°07'0 0.0
2017-May-20 12:29N 49°28' W 000°07'0 0.0
2017-May-20 11:59N 49°28' W 000°07'0 0.1
2017-May-20 11:23N 49°28' W 000°07'0 0.1
2017-May-20 10:59N 49°28' W 000°07'0 0.0
2017-May-20 10:29N 49°28' W 000°07'0 0.0
2017-May-20 09:59N 49°28' W 000°07'0 0.0
2017-May-20 09:29N 49°28' W 000°07'0 0.1
2017-May-20 08:59N 49°28' W 000°07'0 0.0
2017-May-20 08:23N 49°28' W 000°07'0 0.0
2017-May-20 07:59N 49°28' W 000°07'0 0.0
2017-May-20 07:29N 49°28' W 000°07'0 0.0
2017-May-20 06:59N 49°28' W 000°07'3 6.3
2017-May-20 06:30N 49°31' W 000°10'510.5
2017-May-20 06:00N 49°36' W 000°10'5 9.7
2017-May-20 05:30N 49°41' W 000°09'5 9.4
2017-May-20 05:00N 49°45' W 000°09'5 9.3
2017-May-20 04:30N 49°50' W 000°08'5 9.3
2017-May-20 04:00N 49°55' W 000°07'5 9.2
2017-May-20 03:30N 49°59' W 000°06'5 9.0
2017-May-20 03:00N 50°04' W 000°05'4 9.0
2017-May-20 02:30N 50°08' W 000°05'18 9.2
2017-May-20 00:32N 50°26' W 000°01'0 9.4
2017-May-20 00:30N 50°27' W 000°01'5 8.6
2017-May-19 23:54N 50°29' E 000°06'4 9.5
2017-May-19 23:30N 50°30' E 000°12'5 9.9
2017-May-19 23:00N 50°31' E 000°19'42 9.8
2017-May-19 18:45N 50°52' E 001°16'3 8.4
2017-May-19 18:25N 50°54' E 001°19'3 8.3
2017-May-19 18:00N 50°57' E 001°21'4 8.5
2017-May-19 17:30N 51°01' E 001°25'4 9.0
2017-May-19 17:01N 51°05' E 001°28'5 9.3
2017-May-19 16:30N 51°09' E 001°32'510.2
2017-May-19 16:00N 51°13' E 001°36'510.4
2017-May-19 15:30N 51°18' E 001°39'611.6
2017-May-19 15:00N 51°23' E 001°42'1211.6
2017-May-19 14:01N 51°35' E 001°44'612.2
2017-May-19 13:31N 51°41' E 001°44'612.4
2017-May-19 13:01N 51°47' E 001°44'612.1
2017-May-19 12:30N 51°53' E 001°45'611.8
2017-May-19 12:00N 51°59' E 001°46'611.4
2017-May-19 11:31N 52°05' E 001°47'611.2
2017-May-19 11:01N 52°10' E 001°48'510.8
2017-May-19 10:31N 52°16' E 001°49'1910.0
2017-May-19 08:36N 52°34' E 001°52'1 9.2
2017-May-19 08:30N 52°35' E 001°52'4 8.8
2017-May-19 08:00N 52°40' E 001°51'5 9.3
2017-May-19 07:31N 52°44' E 001°48'5 9.6
2017-May-19 07:01N 52°48' E 001°44'5 9.2
2017-May-19 06:31N 52°51' E 001°39'5 9.6
2017-May-19 06:01N 52°54' E 001°32'5 9.9
2017-May-19 05:30N 52°57' E 001°25'510.1
2017-May-19 05:01N 52°59' E 001°18'7711.0
2017-May-18 22:03N 54°03' E 000°07'112.3
2017-May-18 21:56N 54°04' E 000°06'512.6
2017-May-18 21:30N 54°09' E 000°01'612.3
2017-May-18 21:00N 54°14' W 000°05'611.9
2017-May-18 20:30N 54°18' W 000°11'611.9
2017-May-18 20:00N 54°23' W 000°17'611.7
2017-May-18 19:30N 54°28' W 000°23'5 0.2
2017-May-17 15:22N 54°32' W 000°28'411.5
2017-May-17 15:00N 54°28' W 000°24'1211.6
2017-May-17 14:00N 54°19' W 000°12'611.6
2017-May-17 13:30N 54°14' W 000°06'  

Dump ship's entire track history